Bloomingdale, New Jersey
Current Conditions -  °F | °C
As of 5:53 PM on Saturday 25 Oct 2014 (Local Time) from KCDW Reporting Station
Clear Clear  
Wind Chill: 65°   Ceiling: Unl
Heat Index: 65°   Visibility: 10mi
Dew Point: 42°   Wind: 3mph
Humidity: 43%   Direction: 230°SW
Pressure: 29.65"   Gusts: NA
Location:  41.01°N, 74.34°W
Report Text: KCDW 252153Z 23003KT 10SM CLR 18/06 A2965 RMK AO2 SLP044 T01830056
Loading
Personal Weather Stations






























Interactive Weather Map
Tropical Storm Tracking
New forecast layout! Learn more

10-Day Weather Forecast

Advertisements
Track Severe Weather on mobile